sensor_id;sensor_type;location;lat;lon;timestamp;temperature;humidity
34135;DHT22;20410;55.578;12.968;2022-12-07T00:02:18;3.70;1.00
34135;DHT22;20410;55.578;12.968;2022-12-07T00:04:43;3.70;1.00
34135;DHT22;20410;55.578;12.968;2022-12-07T00:07:09;3.70;1.00
34135;DHT22;20410;55.578;12.968;2022-12-07T00:09:34;3.70;1.00
34135;DHT22;20410;55.578;12.968;2022-12-07T00:12:00;3.70;1.00
34135;DHT22;20410;55.578;12.968;2022-12-07T00:14:25;3.80;1.00
34135;DHT22;20410;55.578;12.968;2022-12-07T00:16:52;3.80;1.00
34135;DHT22;20410;55.578;12.968;2022-12-07T00:19:17;3.80;1.00
34135;DHT22;20410;55.578;12.968;2022-12-07T00:21:43;3.80;1.00
34135;DHT22;20410;55.578;12.968;2022-12-07T00:24:10;3.80;1.00
34135;DHT22;20410;55.578;12.968;2022-12-07T00:26:37;3.80;1.00
34135;DHT22;20410;55.578;12.968;2022-12-07T00:29:15;3.80;1.00
34135;DHT22;20410;55.578;12.968;2022-12-07T00:31:41;3.80;1.00
34135;DHT22;20410;55.578;12.968;2022-12-07T00:34:07;3.90;1.00
34135;DHT22;20410;55.578;12.968;2022-12-07T00:36:36;3.90;1.00
34135;DHT22;20410;55.578;12.968;2022-12-07T00:39:02;3.90;1.00
34135;DHT22;20410;55.578;12.968;2022-12-07T00:41:29;3.90;1.00
34135;DHT22;20410;55.578;12.968;2022-12-07T00:43:55;3.90;1.00
34135;DHT22;20410;55.578;12.968;2022-12-07T00:46:22;3.90;1.00
34135;DHT22;20410;55.578;12.968;2022-12-07T00:48:48;3.90;1.00
34135;DHT22;20410;55.578;12.968;2022-12-07T00:51:15;3.90;1.00
34135;DHT22;20410;55.578;12.968;2022-12-07T00:53:42;3.90;1.00
34135;DHT22;20410;55.578;12.968;2022-12-07T00:56:11;3.90;1.00
34135;DHT22;20410;55.578;12.968;2022-12-07T00:58:37;3.90;1.00
34135;DHT22;20410;55.578;12.968;2022-12-07T01:01:04;3.90;1.00
34135;DHT22;20410;55.578;12.968;2022-12-07T01:03:31;3.90;1.00
34135;DHT22;20410;55.578;12.968;2022-12-07T01:05:57;3.90;1.00
34135;DHT22;20410;55.578;12.968;2022-12-07T01:08:24;3.90;1.00
34135;DHT22;20410;55.578;12.968;2022-12-07T01:10:58;3.90;1.00
34135;DHT22;20410;55.578;12.968;2022-12-07T01:13:24;3.90;1.00
34135;DHT22;20410;55.578;12.968;2022-12-07T01:15:50;3.90;1.00
34135;DHT22;20410;55.578;12.968;2022-12-07T01:18:15;3.90;1.00
34135;DHT22;20410;55.578;12.968;2022-12-07T01:20:41;3.90;1.00
34135;DHT22;20410;55.578;12.968;2022-12-07T01:23:07;3.90;1.00
34135;DHT22;20410;55.578;12.968;2022-12-07T01:25:32;3.90;1.00
34135;DHT22;20410;55.578;12.968;2022-12-07T01:27:58;3.90;1.00
34135;DHT22;20410;55.578;12.968;2022-12-07T01:30:24;3.90;1.00
34135;DHT22;20410;55.578;12.968;2022-12-07T01:32:49;3.90;1.00
34135;DHT22;20410;55.578;12.968;2022-12-07T01:35:15;3.90;1.00
34135;DHT22;20410;55.578;12.968;2022-12-07T01:37:41;3.90;1.00
34135;DHT22;20410;55.578;12.968;2022-12-07T01:40:07;3.90;1.00
34135;DHT22;20410;55.578;12.968;2022-12-07T01:42:34;4.00;1.00
34135;DHT22;20410;55.578;12.968;2022-12-07T01:47:48;4.00;1.00
34135;DHT22;20410;55.578;12.968;2022-12-07T01:50:15;4.10;1.00
34135;DHT22;20410;55.578;12.968;2022-12-07T01:52:41;4.10;1.00
34135;DHT22;20410;55.578;12.968;2022-12-07T01:55:10;4.10;1.00
34135;DHT22;20410;55.578;12.968;2022-12-07T01:57:40;4.20;1.00
34135;DHT22;20410;55.578;12.968;2022-12-07T02:00:08;4.20;1.00
34135;DHT22;20410;55.578;12.968;2022-12-07T02:05:27;4.30;1.00
34135;DHT22;20410;55.578;12.968;2022-12-07T02:07:55;4.30;1.00
34135;DHT22;20410;55.578;12.968;2022-12-07T02:10:26;4.20;1.00
34135;DHT22;20410;55.578;12.968;2022-12-07T02:13:00;4.20;1.00
34135;DHT22;20410;55.578;12.968;2022-12-07T02:18:41;4.20;1.00
34135;DHT22;20410;55.578;12.968;2022-12-07T02:26:48;4.20;1.00
34135;DHT22;20410;55.578;12.968;2022-12-07T02:32:25;4.20;1.00
34135;DHT22;20410;55.578;12.968;2022-12-07T02:40:50;4.20;1.00
34135;DHT22;20410;55.578;12.968;2022-12-07T02:43:24;4.10;1.00
34135;DHT22;20410;55.578;12.968;2022-12-07T02:45:52;4.20;1.00
34135;DHT22;20410;55.578;12.968;2022-12-07T02:48:19;4.20;1.00
34135;DHT22;20410;55.578;12.968;2022-12-07T02:50:49;4.20;1.00
34135;DHT22;20410;55.578;12.968;2022-12-07T02:53:32;4.20;1.00
34135;DHT22;20410;55.578;12.968;2022-12-07T02:56:12;4.30;1.00
34135;DHT22;20410;55.578;12.968;2022-12-07T03:01:34;4.40;1.00
34135;DHT22;20410;55.578;12.968;2022-12-07T03:06:58;4.40;1.00
34135;DHT22;20410;55.578;12.968;2022-12-07T03:09:45;4.30;1.00
34135;DHT22;20410;55.578;12.968;2022-12-07T03:12:21;4.30;1.00
34135;DHT22;20410;55.578;12.968;2022-12-07T03:14:55;4.30;1.00
34135;DHT22;20410;55.578;12.968;2022-12-07T03:17:28;4.20;1.00
34135;DHT22;20410;55.578;12.968;2022-12-07T03:19:58;4.20;1.00
34135;DHT22;20410;55.578;12.968;2022-12-07T03:22:28;4.30;1.00
34135;DHT22;20410;55.578;12.968;2022-12-07T03:24:58;4.30;1.00
34135;DHT22;20410;55.578;12.968;2022-12-07T03:27:41;4.30;1.00
34135;DHT22;20410;55.578;12.968;2022-12-07T03:30:17;4.30;1.00
34135;DHT22;20410;55.578;12.968;2022-12-07T03:32:53;4.20;1.00
34135;DHT22;20410;55.578;12.968;2022-12-07T03:37:57;4.00;1.00
34135;DHT22;20410;55.578;12.968;2022-12-07T03:40:26;4.00;1.00
34135;DHT22;20410;55.578;12.968;2022-12-07T03:42:53;4.00;1.00
34135;DHT22;20410;55.578;12.968;2022-12-07T03:45:24;4.20;1.00
34135;DHT22;20410;55.578;12.968;2022-12-07T03:50:53;4.40;1.00
34135;DHT22;20410;55.578;12.968;2022-12-07T03:53:30;4.50;1.00
34135;DHT22;20410;55.578;12.968;2022-12-07T03:55:59;4.60;1.00
34135;DHT22;20410;55.578;12.968;2022-12-07T03:58:26;4.60;1.00
34135;DHT22;20410;55.578;12.968;2022-12-07T04:00:52;4.60;1.00
34135;DHT22;20410;55.578;12.968;2022-12-07T04:03:18;4.60;1.00
34135;DHT22;20410;55.578;12.968;2022-12-07T04:05:44;4.40;1.00
34135;DHT22;20410;55.578;12.968;2022-12-07T04:08:10;4.20;1.00
34135;DHT22;20410;55.578;12.968;2022-12-07T04:10:35;4.20;1.00
34135;DHT22;20410;55.578;12.968;2022-12-07T04:13:01;4.10;1.00
34135;DHT22;20410;55.578;12.968;2022-12-07T04:15:27;4.00;1.00
34135;DHT22;20410;55.578;12.968;2022-12-07T04:17:53;4.00;1.00
34135;DHT22;20410;55.578;12.968;2022-12-07T04:20:20;4.10;1.00
34135;DHT22;20410;55.578;12.968;2022-12-07T04:22:46;4.10;1.00
34135;DHT22;20410;55.578;12.968;2022-12-07T04:25:12;4.20;1.00
34135;DHT22;20410;55.578;12.968;2022-12-07T04:27:37;4.20;1.00
34135;DHT22;20410;55.578;12.968;2022-12-07T04:30:04;4.30;1.00
34135;DHT22;20410;55.578;12.968;2022-12-07T04:32:29;4.40;1.00
34135;DHT22;20410;55.578;12.968;2022-12-07T04:34:55;4.50;1.00
34135;DHT22;20410;55.578;12.968;2022-12-07T04:37:21;4.50;1.00
34135;DHT22;20410;55.578;12.968;2022-12-07T04:39:47;4.60;1.00
34135;DHT22;20410;55.578;12.968;2022-12-07T04:42:13;4.60;1.00
34135;DHT22;20410;55.578;12.968;2022-12-07T04:44:39;4.60;1.00
34135;DHT22;20410;55.578;12.968;2022-12-07T04:47:04;4.60;1.00
34135;DHT22;20410;55.578;12.968;2022-12-07T04:49:30;4.60;1.00
34135;DHT22;20410;55.578;12.968;2022-12-07T04:51:56;4.60;1.00
34135;DHT22;20410;55.578;12.968;2022-12-07T04:54:22;4.60;1.00
34135;DHT22;20410;55.578;12.968;2022-12-07T04:56:47;4.70;1.00
34135;DHT22;20410;55.578;12.968;2022-12-07T04:59:14;4.70;1.00
34135;DHT22;20410;55.578;12.968;2022-12-07T05:01:41;4.60;1.00
34135;DHT22;20410;55.578;12.968;2022-12-07T05:04:07;4.60;1.00
34135;DHT22;20410;55.578;12.968;2022-12-07T05:06:33;4.50;1.00
34135;DHT22;20410;55.578;12.968;2022-12-07T05:08:58;4.40;1.00
34135;DHT22;20410;55.578;12.968;2022-12-07T05:11:24;4.40;1.00
34135;DHT22;20410;55.578;12.968;2022-12-07T05:14:16;4.30;1.00
34135;DHT22;20410;55.578;12.968;2022-12-07T05:16:42;4.40;1.00
34135;DHT22;20410;55.578;12.968;2022-12-07T05:19:08;4.40;1.00
34135;DHT22;20410;55.578;12.968;2022-12-07T05:21:35;4.40;1.00
34135;DHT22;20410;55.578;12.968;2022-12-07T05:24:01;4.50;1.00
34135;DHT22;20410;55.578;12.968;2022-12-07T05:26:27;4.50;1.00
34135;DHT22;20410;55.578;12.968;2022-12-07T05:28:54;4.60;1.00
34135;DHT22;20410;55.578;12.968;2022-12-07T05:31:20;4.70;1.00
34135;DHT22;20410;55.578;12.968;2022-12-07T05:33:46;4.60;1.00
34135;DHT22;20410;55.578;12.968;2022-12-07T05:36:12;4.70;1.00
34135;DHT22;20410;55.578;12.968;2022-12-07T05:38:37;4.70;1.00
34135;DHT22;20410;55.578;12.968;2022-12-07T05:41:04;4.60;1.00
34135;DHT22;20410;55.578;12.968;2022-12-07T05:43:30;4.50;1.00
34135;DHT22;20410;55.578;12.968;2022-12-07T05:45:57;4.50;1.00
34135;DHT22;20410;55.578;12.968;2022-12-07T05:48:23;4.60;1.00
34135;DHT22;20410;55.578;12.968;2022-12-07T05:50:49;4.60;1.00
34135;DHT22;20410;55.578;12.968;2022-12-07T05:53:15;4.60;1.00
34135;DHT22;20410;55.578;12.968;2022-12-07T05:55:41;4.50;1.00
34135;DHT22;20410;55.578;12.968;2022-12-07T05:58:06;4.40;1.00
34135;DHT22;20410;55.578;12.968;2022-12-07T06:00:51;4.20;1.00
34135;DHT22;20410;55.578;12.968;2022-12-07T06:03:16;3.90;1.00
34135;DHT22;20410;55.578;12.968;2022-12-07T06:05:42;3.80;1.00
34135;DHT22;20410;55.578;12.968;2022-12-07T06:08:08;3.80;1.00
34135;DHT22;20410;55.578;12.968;2022-12-07T06:10:33;3.80;1.00
34135;DHT22;20410;55.578;12.968;2022-12-07T06:12:59;3.80;1.00
34135;DHT22;20410;55.578;12.968;2022-12-07T06:15:25;3.80;1.00
34135;DHT22;20410;55.578;12.968;2022-12-07T06:17:50;3.80;1.00
34135;DHT22;20410;55.578;12.968;2022-12-07T06:20:16;3.80;1.00
34135;DHT22;20410;55.578;12.968;2022-12-07T06:22:42;3.70;1.00
34135;DHT22;20410;55.578;12.968;2022-12-07T06:25:07;3.60;1.00
34135;DHT22;20410;55.578;12.968;2022-12-07T06:27:34;3.50;1.00
34135;DHT22;20410;55.578;12.968;2022-12-07T06:30:00;3.50;1.00
34135;DHT22;20410;55.578;12.968;2022-12-07T06:32:32;3.50;1.00
34135;DHT22;20410;55.578;12.968;2022-12-07T06:34:58;3.50;1.00
34135;DHT22;20410;55.578;12.968;2022-12-07T06:37:23;3.50;1.00
34135;DHT22;20410;55.578;12.968;2022-12-07T06:39:49;3.60;1.00
34135;DHT22;20410;55.578;12.968;2022-12-07T06:42:15;3.60;1.00
34135;DHT22;20410;55.578;12.968;2022-12-07T06:44:40;3.70;1.00
34135;DHT22;20410;55.578;12.968;2022-12-07T06:47:06;3.70;1.00
34135;DHT22;20410;55.578;12.968;2022-12-07T06:49:33;3.50;1.00
34135;DHT22;20410;55.578;12.968;2022-12-07T06:51:59;3.50;1.00
34135;DHT22;20410;55.578;12.968;2022-12-07T06:54:24;3.60;1.00
34135;DHT22;20410;55.578;12.968;2022-12-07T06:56:50;3.70;1.00
34135;DHT22;20410;55.578;12.968;2022-12-07T06:59:16;3.70;1.00
34135;DHT22;20410;55.578;12.968;2022-12-07T07:01:41;3.70;1.00
34135;DHT22;20410;55.578;12.968;2022-12-07T07:04:07;3.80;1.00
34135;DHT22;20410;55.578;12.968;2022-12-07T07:06:33;3.70;1.00
34135;DHT22;20410;55.578;12.968;2022-12-07T07:08:59;3.70;1.00
34135;DHT22;20410;55.578;12.968;2022-12-07T07:11:24;3.50;1.00
34135;DHT22;20410;55.578;12.968;2022-12-07T07:13:50;3.40;1.00
34135;DHT22;20410;55.578;12.968;2022-12-07T07:16:15;3.40;1.00
34135;DHT22;20410;55.578;12.968;2022-12-07T07:18:41;3.30;1.00
34135;DHT22;20410;55.578;12.968;2022-12-07T07:21:07;3.20;1.00
34135;DHT22;20410;55.578;12.968;2022-12-07T07:23:32;3.10;1.00
34135;DHT22;20410;55.578;12.968;2022-12-07T07:25:58;3.10;1.00
34135;DHT22;20410;55.578;12.968;2022-12-07T07:28:24;3.00;1.00
34135;DHT22;20410;55.578;12.968;2022-12-07T07:30:49;2.90;1.00
34135;DHT22;20410;55.578;12.968;2022-12-07T07:33:15;2.80;1.00
34135;DHT22;20410;55.578;12.968;2022-12-07T07:35:41;2.70;1.00
34135;DHT22;20410;55.578;12.968;2022-12-07T07:38:07;2.60;1.00
34135;DHT22;20410;55.578;12.968;2022-12-07T07:40:32;2.50;1.00
34135;DHT22;20410;55.578;12.968;2022-12-07T07:42:58;2.60;1.00
34135;DHT22;20410;55.578;12.968;2022-12-07T07:45:25;2.50;1.00
34135;DHT22;20410;55.578;12.968;2022-12-07T07:47:51;2.50;1.00
34135;DHT22;20410;55.578;12.968;2022-12-07T07:50:17;2.30;1.00
34135;DHT22;20410;55.578;12.968;2022-12-07T07:52:44;2.40;1.00
34135;DHT22;20410;55.578;12.968;2022-12-07T07:55:09;2.10;1.00
34135;DHT22;20410;55.578;12.968;2022-12-07T07:57:36;1.90;1.00
34135;DHT22;20410;55.578;12.968;2022-12-07T08:00:05;1.80;1.00
34135;DHT22;20410;55.578;12.968;2022-12-07T08:02:31;1.60;1.00
34135;DHT22;20410;55.578;12.968;2022-12-07T08:04:57;1.50;1.00
34135;DHT22;20410;55.578;12.968;2022-12-07T08:07:22;1.60;1.00
34135;DHT22;20410;55.578;12.968;2022-12-07T08:09:48;1.70;1.00
34135;DHT22;20410;55.578;12.968;2022-12-07T08:12:13;1.80;1.00
34135;DHT22;20410;55.578;12.968;2022-12-07T08:14:39;1.90;1.00
34135;DHT22;20410;55.578;12.968;2022-12-07T08:17:05;2.00;1.00
34135;DHT22;20410;55.578;12.968;2022-12-07T08:19:30;2.00;1.00
34135;DHT22;20410;55.578;12.968;2022-12-07T08:21:56;2.00;1.00
34135;DHT22;20410;55.578;12.968;2022-12-07T08:24:22;1.90;1.00
34135;DHT22;20410;55.578;12.968;2022-12-07T08:26:48;1.80;1.00
34135;DHT22;20410;55.578;12.968;2022-12-07T08:29:15;1.80;1.00
34135;DHT22;20410;55.578;12.968;2022-12-07T08:31:41;1.60;1.00
34135;DHT22;20410;55.578;12.968;2022-12-07T08:34:06;1.60;1.00
34135;DHT22;20410;55.578;12.968;2022-12-07T08:36:32;1.50;1.00
34135;DHT22;20410;55.578;12.968;2022-12-07T08:38:58;1.60;1.00
34135;DHT22;20410;55.578;12.968;2022-12-07T08:41:23;1.70;1.00
34135;DHT22;20410;55.578;12.968;2022-12-07T08:43:50;1.70;1.00
34135;DHT22;20410;55.578;12.968;2022-12-07T08:47:02;1.70;1.00
34135;DHT22;20410;55.578;12.968;2022-12-07T08:49:11;1.70;1.00
34135;DHT22;20410;55.578;12.968;2022-12-07T08:51:39;1.50;1.00
34135;DHT22;20410;55.578;12.968;2022-12-07T08:54:08;1.30;1.00
34135;DHT22;20410;55.578;12.968;2022-12-07T08:56:34;1.20;1.00
34135;DHT22;20410;55.578;12.968;2022-12-07T08:59:00;1.10;1.00
34135;DHT22;20410;55.578;12.968;2022-12-07T09:01:26;1.10;1.00
34135;DHT22;20410;55.578;12.968;2022-12-07T09:03:52;1.10;1.00
34135;DHT22;20410;55.578;12.968;2022-12-07T09:06:18;1.10;1.00
34135;DHT22;20410;55.578;12.968;2022-12-07T09:08:46;1.00;1.00
34135;DHT22;20410;55.578;12.968;2022-12-07T09:11:12;1.10;1.00
34135;DHT22;20410;55.578;12.968;2022-12-07T09:13:38;1.20;1.00
34135;DHT22;20410;55.578;12.968;2022-12-07T09:16:04;1.10;1.00
34135;DHT22;20410;55.578;12.968;2022-12-07T09:18:30;1.10;1.00
34135;DHT22;20410;55.578;12.968;2022-12-07T09:20:56;1.10;1.00
34135;DHT22;20410;55.578;12.968;2022-12-07T09:23:22;1.00;1.00
34135;DHT22;20410;55.578;12.968;2022-12-07T09:25:48;0.80;1.00
34135;DHT22;20410;55.578;12.968;2022-12-07T09:28:13;1.00;1.00
34135;DHT22;20410;55.578;12.968;2022-12-07T09:30:44;1.00;1.00
34135;DHT22;20410;55.578;12.968;2022-12-07T09:33:10;1.10;1.00
34135;DHT22;20410;55.578;12.968;2022-12-07T09:35:35;1.10;1.00
34135;DHT22;20410;55.578;12.968;2022-12-07T09:38:01;1.10;1.00
34135;DHT22;20410;55.578;12.968;2022-12-07T09:40:27;1.30;1.00
34135;DHT22;20410;55.578;12.968;2022-12-07T09:42:54;1.30;1.00
34135;DHT22;20410;55.578;12.968;2022-12-07T09:45:22;1.50;1.00
34135;DHT22;20410;55.578;12.968;2022-12-07T09:47:49;1.50;1.00
34135;DHT22;20410;55.578;12.968;2022-12-07T09:50:24;1.50;1.00
34135;DHT22;20410;55.578;12.968;2022-12-07T09:52:51;1.50;1.00
34135;DHT22;20410;55.578;12.968;2022-12-07T09:55:28;1.70;1.00
34135;DHT22;20410;55.578;12.968;2022-12-07T09:57:54;1.70;1.00
34135;DHT22;20410;55.578;12.968;2022-12-07T10:00:22;1.90;1.00
34135;DHT22;20410;55.578;12.968;2022-12-07T10:02:57;2.00;1.00
34135;DHT22;20410;55.578;12.968;2022-12-07T10:05:30;2.10;1.00
34135;DHT22;20410;55.578;12.968;2022-12-07T10:07:56;2.20;1.00
34135;DHT22;20410;55.578;12.968;2022-12-07T10:10:31;2.10;1.00
34135;DHT22;20410;55.578;12.968;2022-12-07T10:13:06;2.20;1.00
34135;DHT22;20410;55.578;12.968;2022-12-07T10:23:26;2.60;1.00
34135;DHT22;20410;55.578;12.968;2022-12-07T10:25:52;2.80;1.00
34135;DHT22;20410;55.578;12.968;2022-12-07T10:28:20;2.80;1.00
34135;DHT22;20410;55.578;12.968;2022-12-07T10:33:34;2.80;1.00
34135;DHT22;20410;55.578;12.968;2022-12-07T10:36:09;2.90;1.00
34135;DHT22;20410;55.578;12.968;2022-12-07T10:38:47;3.00;1.00
34135;DHT22;20410;55.578;12.968;2022-12-07T10:41:13;2.90;1.00
34135;DHT22;20410;55.578;12.968;2022-12-07T10:43:50;2.70;1.00
34135;DHT22;20410;55.578;12.968;2022-12-07T11:00:29;2.50;1.00
34135;DHT22;20410;55.578;12.968;2022-12-07T11:03:23;2.30;1.00
34135;DHT22;20410;55.578;12.968;2022-12-07T11:16:55;2.20;1.00
34135;DHT22;20410;55.578;12.968;2022-12-07T11:22:06;2.20;1.00
34135;DHT22;20410;55.578;12.968;2022-12-07T11:25:14;2.20;1.00
34135;DHT22;20410;55.578;12.968;2022-12-07T11:30:16;2.40;1.00
34135;DHT22;20410;55.578;12.968;2022-12-07T11:38:18;2.60;1.00
34135;DHT22;20410;55.578;12.968;2022-12-07T11:40:48;2.60;1.00
34135;DHT22;20410;55.578;12.968;2022-12-07T11:43:26;2.60;1.00
34135;DHT22;20410;55.578;12.968;2022-12-07T11:46:11;2.50;1.00
34135;DHT22;20410;55.578;12.968;2022-12-07T11:48:46;2.40;1.00
34135;DHT22;20410;55.578;12.968;2022-12-07T11:51:13;2.30;1.00
34135;DHT22;20410;55.578;12.968;2022-12-07T11:54:03;2.30;1.00
34135;DHT22;20410;55.578;12.968;2022-12-07T11:56:30;2.30;1.00
34135;DHT22;20410;55.578;12.968;2022-12-07T11:59:26;2.40;1.00
34135;DHT22;20410;55.578;12.968;2022-12-07T12:02:18;2.30;1.00
34135;DHT22;20410;55.578;12.968;2022-12-07T12:05:02;2.20;1.00
34135;DHT22;20410;55.578;12.968;2022-12-07T12:07:31;2.10;1.00
34135;DHT22;20410;55.578;12.968;2022-12-07T12:10:06;2.10;1.00
34135;DHT22;20410;55.578;12.968;2022-12-07T12:18:22;2.30;1.00
34135;DHT22;20410;55.578;12.968;2022-12-07T12:21:26;2.30;1.00
34135;DHT22;20410;55.578;12.968;2022-12-07T12:23:48;2.20;1.00
34135;DHT22;20410;55.578;12.968;2022-12-07T12:26:20;2.20;1.00
34135;DHT22;20410;55.578;12.968;2022-12-07T12:33:58;2.20;1.00
34135;DHT22;20410;55.578;12.968;2022-12-07T12:39:12;2.20;1.00
34135;DHT22;20410;55.578;12.968;2022-12-07T12:46:56;2.00;1.00
34135;DHT22;20410;55.578;12.968;2022-12-07T12:51:59;2.10;1.00
34135;DHT22;20410;55.578;12.968;2022-12-07T12:54:29;2.10;1.00
34135;DHT22;20410;55.578;12.968;2022-12-07T12:57:09;2.10;1.00
34135;DHT22;20410;55.578;12.968;2022-12-07T13:02:34;2.00;1.00
34135;DHT22;20410;55.578;12.968;2022-12-07T13:18:35;1.70;1.00
34135;DHT22;20410;55.578;12.968;2022-12-07T13:26:18;1.70;1.00
34135;DHT22;20410;55.578;12.968;2022-12-07T13:31:49;1.80;1.00
34135;DHT22;20410;55.578;12.968;2022-12-07T13:36:56;1.60;1.00
34135;DHT22;20410;55.578;12.968;2022-12-07T13:39:25;1.70;1.00
34135;DHT22;20410;55.578;12.968;2022-12-07T13:41:55;1.70;1.00
34135;DHT22;20410;55.578;12.968;2022-12-07T13:44:23;1.70;1.00
34135;DHT22;20410;55.578;12.968;2022-12-07T13:47:18;1.80;1.00
34135;DHT22;20410;55.578;12.968;2022-12-07T13:49:48;1.80;1.00
34135;DHT22;20410;55.578;12.968;2022-12-07T13:52:22;1.80;1.00
34135;DHT22;20410;55.578;12.968;2022-12-07T13:54:55;1.70;1.00
34135;DHT22;20410;55.578;12.968;2022-12-07T13:57:22;1.80;1.00
34135;DHT22;20410;55.578;12.968;2022-12-07T13:59:49;1.70;1.00
34135;DHT22;20410;55.578;12.968;2022-12-07T14:02:34;1.60;1.00
34135;DHT22;20410;55.578;12.968;2022-12-07T14:05:30;1.60;1.00
34135;DHT22;20410;55.578;12.968;2022-12-07T14:12:58;1.40;1.00
34135;DHT22;20410;55.578;12.968;2022-12-07T14:15:28;1.40;1.00
34135;DHT22;20410;55.578;12.968;2022-12-07T14:17:55;1.30;1.00
34135;DHT22;20410;55.578;12.968;2022-12-07T14:22:58;1.20;1.00
34135;DHT22;20410;55.578;12.968;2022-12-07T14:25:26;1.30;1.00
34135;DHT22;20410;55.578;12.968;2022-12-07T14:27:58;1.40;1.00
34135;DHT22;20410;55.578;12.968;2022-12-07T14:30:27;1.20;1.00
34135;DHT22;20410;55.578;12.968;2022-12-07T14:32:57;1.30;1.00
34135;DHT22;20410;55.578;12.968;2022-12-07T14:35:23;1.20;1.00
34135;DHT22;20410;55.578;12.968;2022-12-07T14:37:49;1.10;1.00
34135;DHT22;20410;55.578;12.968;2022-12-07T14:40:24;1.10;1.00
34135;DHT22;20410;55.578;12.968;2022-12-07T14:42:56;1.10;1.00
34135;DHT22;20410;55.578;12.968;2022-12-07T14:45:23;1.00;1.00
34135;DHT22;20410;55.578;12.968;2022-12-07T14:47:49;1.00;1.00
34135;DHT22;20410;55.578;12.968;2022-12-07T14:50:16;0.90;1.00
34135;DHT22;20410;55.578;12.968;2022-12-07T14:53:09;1.00;4.60
34135;DHT22;20410;55.578;12.968;2022-12-07T14:55:31;0.90;1.00
34135;DHT22;20410;55.578;12.968;2022-12-07T14:57:57;0.80;1.00
34135;DHT22;20410;55.578;12.968;2022-12-07T15:00:25;0.70;1.00
34135;DHT22;20410;55.578;12.968;2022-12-07T15:02:52;0.70;1.00
34135;DHT22;20410;55.578;12.968;2022-12-07T15:05:18;0.60;1.00
34135;DHT22;20410;55.578;12.968;2022-12-07T15:07:45;0.60;1.00
34135;DHT22;20410;55.578;12.968;2022-12-07T15:12:45;0.50;1.00
34135;DHT22;20410;55.578;12.968;2022-12-07T15:15:12;0.50;1.00
34135;DHT22;20410;55.578;12.968;2022-12-07T15:17:38;0.50;1.00
34135;DHT22;20410;55.578;12.968;2022-12-07T15:20:04;0.40;1.00
34135;DHT22;20410;55.578;12.968;2022-12-07T15:22:30;0.40;1.00
34135;DHT22;20410;55.578;12.968;2022-12-07T15:24:57;0.40;1.00
34135;DHT22;20410;55.578;12.968;2022-12-07T15:27:23;0.40;1.00
34135;DHT22;20410;55.578;12.968;2022-12-07T15:29:48;0.30;1.00
34135;DHT22;20410;55.578;12.968;2022-12-07T15:32:14;0.30;1.00
34135;DHT22;20410;55.578;12.968;2022-12-07T15:34:40;0.40;1.00
34135;DHT22;20410;55.578;12.968;2022-12-07T15:37:06;0.30;1.00
34135;DHT22;20410;55.578;12.968;2022-12-07T15:39:32;0.40;1.00
34135;DHT22;20410;55.578;12.968;2022-12-07T15:41:57;0.40;1.00
34135;DHT22;20410;55.578;12.968;2022-12-07T15:44:23;0.40;1.00
34135;DHT22;20410;55.578;12.968;2022-12-07T15:47:07;0.40;1.00
34135;DHT22;20410;55.578;12.968;2022-12-07T15:49:33;0.30;1.00
34135;DHT22;20410;55.578;12.968;2022-12-07T15:51:58;0.30;1.00
34135;DHT22;20410;55.578;12.968;2022-12-07T15:54:26;0.20;1.00
34135;DHT22;20410;55.578;12.968;2022-12-07T15:56:52;0.20;1.00
34135;DHT22;20410;55.578;12.968;2022-12-07T15:59:18;0.20;1.00
34135;DHT22;20410;55.578;12.968;2022-12-07T16:01:44;0.20;1.00
34135;DHT22;20410;55.578;12.968;2022-12-07T16:04:10;0.20;1.00
34135;DHT22;20410;55.578;12.968;2022-12-07T16:06:36;0.20;1.00
34135;DHT22;20410;55.578;12.968;2022-12-07T16:09:02;0.20;1.00
34135;DHT22;20410;55.578;12.968;2022-12-07T16:11:28;0.30;1.00
34135;DHT22;20410;55.578;12.968;2022-12-07T16:13:53;0.40;1.00
34135;DHT22;20410;55.578;12.968;2022-12-07T16:16:20;0.50;1.00
34135;DHT22;20410;55.578;12.968;2022-12-07T16:18:48;0.50;1.00
34135;DHT22;20410;55.578;12.968;2022-12-07T16:21:14;0.30;1.00
34135;DHT22;20410;55.578;12.968;2022-12-07T16:23:40;0.40;1.00
34135;DHT22;20410;55.578;12.968;2022-12-07T16:26:06;0.30;1.00
34135;DHT22;20410;55.578;12.968;2022-12-07T16:28:32;0.40;1.00
34135;DHT22;20410;55.578;12.968;2022-12-07T16:31:06;0.40;1.00
34135;DHT22;20410;55.578;12.968;2022-12-07T16:33:35;0.40;1.00
34135;DHT22;20410;55.578;12.968;2022-12-07T16:36:03;0.40;1.00
34135;DHT22;20410;55.578;12.968;2022-12-07T16:38:29;0.50;1.00
34135;DHT22;20410;55.578;12.968;2022-12-07T16:40:54;0.40;1.00
34135;DHT22;20410;55.578;12.968;2022-12-07T16:43:20;0.40;1.00
34135;DHT22;20410;55.578;12.968;2022-12-07T16:45:46;0.40;1.00
34135;DHT22;20410;55.578;12.968;2022-12-07T16:48:13;0.50;1.00
34135;DHT22;20410;55.578;12.968;2022-12-07T16:50:40;0.50;1.00
34135;DHT22;20410;55.578;12.968;2022-12-07T16:53:07;0.60;1.00
34135;DHT22;20410;55.578;12.968;2022-12-07T16:55:36;0.60;1.00
34135;DHT22;20410;55.578;12.968;2022-12-07T16:58:02;0.70;1.00
34135;DHT22;20410;55.578;12.968;2022-12-07T17:00:28;0.50;1.00
34135;DHT22;20410;55.578;12.968;2022-12-07T17:02:53;0.60;1.00
34135;DHT22;20410;55.578;12.968;2022-12-07T17:05:25;0.50;1.00
34135;DHT22;20410;55.578;12.968;2022-12-07T17:07:52;0.50;1.00
34135;DHT22;20410;55.578;12.968;2022-12-07T17:10:18;0.60;1.00
34135;DHT22;20410;55.578;12.968;2022-12-07T17:12:43;0.50;1.00
34135;DHT22;20410;55.578;12.968;2022-12-07T17:15:09;0.50;1.00
34135;DHT22;20410;55.578;12.968;2022-12-07T17:17:57;0.50;1.00
34135;DHT22;20410;55.578;12.968;2022-12-07T17:20:26;0.60;1.00
34135;DHT22;20410;55.578;12.968;2022-12-07T17:22:52;0.50;1.00
34135;DHT22;20410;55.578;12.968;2022-12-07T17:25:18;0.60;1.00
34135;DHT22;20410;55.578;12.968;2022-12-07T17:27:46;0.50;1.00
34135;DHT22;20410;55.578;12.968;2022-12-07T17:30:13;0.50;1.00
34135;DHT22;20410;55.578;12.968;2022-12-07T17:32:39;0.60;1.00
34135;DHT22;20410;55.578;12.968;2022-12-07T17:35:05;0.50;1.00
34135;DHT22;20410;55.578;12.968;2022-12-07T17:37:32;0.50;1.00
34135;DHT22;20410;55.578;12.968;2022-12-07T17:39:58;0.60;1.00
34135;DHT22;20410;55.578;12.968;2022-12-07T17:42:25;0.70;1.00
34135;DHT22;20410;55.578;12.968;2022-12-07T17:45:08;0.70;1.00
34135;DHT22;20410;55.578;12.968;2022-12-07T17:47:36;0.80;1.00
34135;DHT22;20410;55.578;12.968;2022-12-07T17:50:03;0.90;1.00
34135;DHT22;20410;55.578;12.968;2022-12-07T17:52:29;1.00;1.00
34135;DHT22;20410;55.578;12.968;2022-12-07T17:55:13;1.00;1.00
34135;DHT22;20410;55.578;12.968;2022-12-07T17:57:38;0.90;1.00
34135;DHT22;20410;55.578;12.968;2022-12-07T18:00:05;1.00;1.00
34135;DHT22;20410;55.578;12.968;2022-12-07T18:02:31;1.00;1.00
34135;DHT22;20410;55.578;12.968;2022-12-07T18:04:57;1.00;1.00
34135;DHT22;20410;55.578;12.968;2022-12-07T18:07:22;1.00;1.00
34135;DHT22;20410;55.578;12.968;2022-12-07T18:09:48;1.00;1.00
34135;DHT22;20410;55.578;12.968;2022-12-07T18:12:14;1.00;1.00
34135;DHT22;20410;55.578;12.968;2022-12-07T18:14:39;1.00;1.00